Time;durP1;ratioP1;P1;durP2;ratioP2;P2;SDS_P1;SDS_P2;PMS_P1;PMS_P2;Temp;Humidity;BMP_temperature;BMP_pressure;BME280_temperature;BME280_humidity;BME280_pressure;Samples;Min_cycle;Max_cycle;Signal;HPM_P1;HPM_P2
2021/07/09 00:01:40;;;;;;;4.97;0.40;;;14.60;99.90;;;;;;5013456;28;20053;-80
2021/07/09 00:04:06;;;;;;;1.08;0.32;;;14.60;99.90;;;;;;5020869;28;20375;-80
2021/07/09 00:06:32;;;;;;;3.40;0.68;;;14.70;99.90;;;;;;5015555;28;20049;-79
2021/07/09 00:08:59;;;;;;;9.57;1.05;;;14.70;99.90;;;;;;5010264;28;20033;-80
2021/07/09 00:11:25;;;;;;;3.08;0.80;;;14.70;99.90;;;;;;5020374;28;20033;-80
2021/07/09 00:13:51;;;;;;;4.80;0.80;;;14.70;99.90;;;;;;5030392;28;20056;-80
2021/07/09 00:16:17;;;;;;;6.15;0.77;;;14.70;99.90;;;;;;5029451;28;20037;-80
2021/07/09 00:18:44;;;;;;;3.90;0.70;;;14.70;99.90;;;;;;5012826;28;20041;-80
2021/07/09 00:21:10;;;;;;;3.30;0.90;;;14.60;99.90;;;;;;5014334;28;20038;-79
2021/07/09 00:23:36;;;;;;;4.57;1.20;;;14.60;99.90;;;;;;5010068;28;20822;-79
2021/07/09 00:26:02;;;;;;;3.80;1.17;;;14.50;99.90;;;;;;5023016;28;20083;-80
2021/07/09 00:28:28;;;;;;;4.00;1.05;;;14.60;99.90;;;;;;5021766;28;20069;-79
2021/07/09 00:30:53;;;;;;;5.70;1.10;;;14.70;99.90;;;;;;5031626;28;20071;-79
2021/07/09 00:33:19;;;;;;;4.93;1.02;;;14.70;99.90;;;;;;5029380;28;20044;-79
2021/07/09 00:35:45;;;;;;;3.40;0.75;;;14.70;99.90;;;;;;5028484;28;20045;-79
2021/07/09 00:38:10;;;;;;;8.90;0.98;;;14.70;99.90;;;;;;5029587;28;20060;-80
2021/07/09 00:40:36;;;;;;;4.95;0.90;;;14.80;99.90;;;;;;5029251;28;20064;-80
2021/07/09 00:43:02;;;;;;;5.95;0.90;;;14.80;99.90;;;;;;5029710;28;20033;-79
2021/07/09 00:45:28;;;;;;;5.03;0.82;;;14.80;99.90;;;;;;5027851;28;20430;-79
2021/07/09 00:47:53;;;;;;;4.28;0.82;;;14.80;99.90;;;;;;5029805;28;20029;-80
2021/07/09 00:50:19;;;;;;;7.65;1.40;;;14.70;99.90;;;;;;5029479;28;20033;-80
2021/07/09 00:52:46;;;;;;;6.32;2.95;;;14.70;99.90;;;;;;5029191;28;20039;-79
2021/07/09 00:55:12;;;;;;;3.20;1.42;;;14.60;99.90;;;;;;5028717;28;20041;-79
2021/07/09 00:57:41;;;;;;;5.40;1.10;;;14.60;99.90;;;;;;5028370;28;20058;-79
2021/07/09 01:00:10;;;;;;;4.15;0.85;;;14.70;99.90;;;;;;5029092;28;20038;-79
2021/07/09 01:02:36;;;;;;;9.00;1.38;;;14.70;99.90;;;;;;5029727;28;20030;-79
2021/07/09 01:05:05;;;;;;;2.72;1.10;;;14.80;99.90;;;;;;5029126;28;20038;-79
2021/07/09 01:07:30;;;;;;;2.90;1.10;;;14.80;99.90;;;;;;5015017;28;20029;-79
2021/07/09 01:09:56;;;;;;;5.28;1.10;;;14.80;99.90;;;;;;5027277;28;20037;-79
2021/07/09 01:12:22;;;;;;;18.08;7.30;;;14.80;99.90;;;;;;5030096;28;20021;-80
2021/07/09 01:14:48;;;;;;;9.27;6.00;;;14.80;99.90;;;;;;5030869;28;20359;-79
2021/07/09 01:17:14;;;;;;;9.07;4.43;;;14.80;99.90;;;;;;5029631;28;20025;-80
2021/07/09 01:19:40;;;;;;;8.50;4.35;;;14.80;99.90;;;;;;5030550;28;20049;-79
2021/07/09 01:22:07;;;;;;;8.88;5.63;;;14.70;99.90;;;;;;5029689;28;20030;-80
2021/07/09 01:24:35;;;;;;;7.68;4.40;;;14.70;99.90;;;;;;5024652;28;20050;-80
2021/07/09 01:27:00;;;;;;;5.93;3.72;;;14.70;99.90;;;;;;5029229;28;20518;-79
2021/07/09 01:29:26;;;;;;;5.28;3.63;;;14.70;99.90;;;;;;5029298;28;20061;-79
2021/07/09 01:31:52;;;;;;;7.93;4.22;;;14.80;99.90;;;;;;5028872;28;20034;-80
2021/07/09 01:34:18;;;;;;;5.95;3.60;;;14.80;99.90;;;;;;5026455;28;20049;-80
2021/07/09 01:36:43;;;;;;;6.03;3.20;;;14.80;99.90;;;;;;5029059;28;20038;-79
2021/07/09 01:39:09;;;;;;;5.05;2.83;;;14.80;99.90;;;;;;5028282;28;20044;-80
2021/07/09 01:41:35;;;;;;;6.05;1.73;;;14.70;99.90;;;;;;5014834;28;20106;-80
2021/07/09 01:44:02;;;;;;;7.10;2.03;;;14.80;99.90;;;;;;5013114;28;20040;-79
2021/07/09 01:46:28;;;;;;;4.93;1.85;;;14.80;99.90;;;;;;5028566;28;20026;-79
2021/07/09 01:48:54;;;;;;;4.38;1.75;;;14.80;99.90;;;;;;5027348;28;20033;-79
2021/07/09 01:51:19;;;;;;;3.35;0.82;;;14.70;99.90;;;;;;5028686;28;20033;-79
2021/07/09 01:53:45;;;;;;;5.63;0.80;;;14.70;99.90;;;;;;5028619;28;20038;-79
2021/07/09 01:56:11;;;;;;;4.47;1.00;;;14.70;99.90;;;;;;5024732;28;20061;-80
2021/07/09 01:58:37;;;;;;;7.18;1.10;;;14.60;99.90;;;;;;5009270;28;20042;-80
2021/07/09 02:01:04;;;;;;;5.20;0.75;;;14.60;99.90;;;;;;5019873;28;20092;-80
2021/07/09 02:03:30;;;;;;;2.67;0.70;;;14.70;99.90;;;;;;5029256;28;20516;-80
2021/07/09 02:05:55;;;;;;;3.92;1.10;;;14.60;99.90;;;;;;5028195;28;20037;-79
2021/07/09 02:08:21;;;;;;;4.00;0.90;;;14.60;99.90;;;;;;5027914;28;20030;-79
2021/07/09 02:10:46;;;;;;;5.85;1.00;;;14.70;99.90;;;;;;5027569;28;20042;-79
2021/07/09 02:13:12;;;;;;;4.95;0.98;;;14.50;99.90;;;;;;5031293;28;20037;-80
2021/07/09 02:15:44;;;;;;;4.28;1.65;;;14.50;99.90;;;;;;5032474;28;20451;-79
2021/07/09 02:18:12;;;;;;;6.78;1.10;;;14.50;99.90;;;;;;5032433;28;20040;-80
2021/07/09 02:20:38;;;;;;;5.93;1.08;;;14.50;99.90;;;;;;5031493;28;20541;-79
2021/07/09 02:23:07;;;;;;;3.97;1.38;;;14.50;99.90;;;;;;5032145;28;20025;-79
2021/07/09 02:25:34;;;;;;;5.35;1.40;;;14.50;99.90;;;;;;5025019;28;20062;-79
2021/07/09 02:27:59;;;;;;;5.70;1.33;;;14.50;99.90;;;;;;5012643;28;20200;-79
2021/07/09 02:30:28;;;;;;;7.63;2.05;;;14.50;99.90;;;;;;5018985;28;20782;-80
2021/07/09 02:32:54;;;;;;;4.70;1.98;;;14.30;99.90;;;;;;5023519;28;20700;-79
2021/07/09 02:35:22;;;;;;;8.85;2.63;;;14.30;99.90;;;;;;5011578;28;20030;-79
2021/07/09 02:37:49;;;;;;;5.97;1.40;;;14.30;99.90;;;;;;5028035;28;20079;-79
2021/07/09 02:40:17;;;;;;;6.55;1.50;;;14.30;99.90;;;;;;5028047;28;20096;-78
2021/07/09 02:42:46;;;;;;;2.88;1.10;;;14.40;99.90;;;;;;5027658;28;20761;-79
2021/07/09 02:45:12;;;;;;;5.10;1.00;;;14.30;99.90;;;;;;5031882;28;20113;-80
2021/07/09 02:47:41;;;;;;;2.35;0.82;;;14.30;99.90;;;;;;5031849;28;20442;-79
2021/07/09 02:50:10;;;;;;;8.27;1.00;;;14.30;99.90;;;;;;5031019;28;20030;-79
2021/07/09 02:52:35;;;;;;;10.40;0.93;;;14.20;99.90;;;;;;5031144;28;20053;-80
2021/07/09 02:55:03;;;;;;;6.43;0.77;;;14.00;99.90;;;;;;5031312;28;20674;-79
2021/07/09 02:57:29;;;;;;;5.97;0.80;;;13.90;99.90;;;;;;5030537;28;20033;-80
2021/07/09 02:59:55;;;;;;;16.90;1.30;;;13.90;99.90;;;;;;5017873;28;20080;-79
2021/07/09 03:02:20;;;;;;;6.38;0.98;;;14.00;99.90;;;;;;5031227;28;20017;-80
2021/07/09 03:04:46;;;;;;;7.70;0.70;;;14.00;99.90;;;;;;5031426;28;20037;-79
2021/07/09 03:07:12;;;;;;;4.00;1.00;;;13.90;99.90;;;;;;5016223;28;20026;-79
2021/07/09 03:09:37;;;;;;;5.85;0.90;;;13.90;99.90;;;;;;5030686;28;20111;-79
2021/07/09 03:12:03;;;;;;;3.92;0.85;;;14.00;99.90;;;;;;5019590;28;20045;-80
2021/07/09 03:14:29;;;;;;;6.10;0.88;;;14.00;99.90;;;;;;5024308;28;20037;-79
2021/07/09 03:16:54;;;;;;;7.22;0.98;;;14.00;99.90;;;;;;5030027;28;20049;-79
2021/07/09 03:19:20;;;;;;;5.05;1.05;;;14.00;99.90;;;;;;5030078;28;20046;-79
2021/07/09 03:21:46;;;;;;;3.13;1.02;;;13.90;99.90;;;;;;5030191;28;20029;-79
2021/07/09 03:24:12;;;;;;;2.05;0.80;;;13.80;99.90;;;;;;5030280;28;20051;-79
2021/07/09 03:26:37;;;;;;;9.32;1.67;;;13.80;99.90;;;;;;5030335;28;20038;-79
2021/07/09 03:29:03;;;;;;;6.97;1.55;;;13.80;99.90;;;;;;5031382;28;20116;-79
2021/07/09 03:31:31;;;;;;;6.53;1.50;;;13.80;99.90;;;;;;5029583;28;20034;-80
2021/07/09 03:33:58;;;;;;;2.97;0.90;;;13.70;99.90;;;;;;5030953;28;20037;-79
2021/07/09 03:36:26;;;;;;;1.83;0.90;;;13.70;99.90;;;;;;5023520;28;20030;-79
2021/07/09 03:38:54;;;;;;;4.97;0.98;;;13.80;99.90;;;;;;5011149;28;20037;-79
2021/07/09 03:41:19;;;;;;;2.97;0.82;;;13.80;99.90;;;;;;5013375;28;20032;-79
2021/07/09 03:43:45;;;;;;;4.18;0.98;;;13.80;99.90;;;;;;5031002;28;20037;-79
2021/07/09 03:46:11;;;;;;;4.38;0.95;;;13.70;99.90;;;;;;5029563;28;20037;-80
2021/07/09 03:48:37;;;;;;;3.45;0.98;;;13.70;99.90;;;;;;5030769;28;20674;-79
2021/07/09 03:51:04;;;;;;;3.90;0.70;;;13.60;99.90;;;;;;5030380;28;20037;-79
2021/07/09 03:53:30;;;;;;;4.38;0.93;;;13.70;99.90;;;;;;5010745;28;20041;-79
2021/07/09 03:55:56;;;;;;;4.07;0.85;;;13.60;99.90;;;;;;5010551;28;20686;-79
2021/07/09 03:58:21;;;;;;;9.13;2.15;;;13.60;99.90;;;;;;5008890;28;20042;-79
2021/07/09 04:00:47;;;;;;;7.53;1.83;;;13.60;99.90;;;;;;5010177;28;20660;-79
2021/07/09 04:03:13;;;;;;;9.02;1.92;;;13.60;99.90;;;;;;5023868;28;20795;-79
2021/07/09 04:05:38;;;;;;;6.13;2.38;;;13.60;99.90;;;;;;5029621;28;20037;-80
2021/07/09 04:08:04;;;;;;;11.90;2.60;;;13.60;99.90;;;;;;5029527;28;20041;-79
2021/07/09 04:10:30;;;;;;;5.78;2.03;;;13.60;99.90;;;;;;5029532;28;20132;-79
2021/07/09 04:12:56;;;;;;;5.03;1.90;;;13.60;99.90;;;;;;5029720;28;20041;-80
2021/07/09 04:15:21;;;;;;;6.20;2.50;;;13.40;99.90;;;;;;5029910;28;20036;-79
2021/07/09 04:17:47;;;;;;;7.95;3.42;;;13.50;99.90;;;;;;5023744;28;20037;-79
2021/07/09 04:20:14;;;;;;;3.50;1.88;;;13.40;99.90;;;;;;5010036;28;20395;-79
2021/07/09 04:22:40;;;;;;;3.85;1.65;;;13.50;99.90;;;;;;5009697;28;20625;-80
2021/07/09 04:25:08;;;;;;;5.35;2.17;;;13.40;99.90;;;;;;5027554;28;20057;-80
2021/07/09 04:27:35;;;;;;;5.43;3.40;;;13.40;99.90;;;;;;5024473;28;20413;-79
2021/07/09 04:30:01;;;;;;;7.68;4.13;;;13.50;99.90;;;;;;5027817;28;20654;-79
2021/07/09 04:32:27;;;;;;;7.68;4.05;;;13.60;99.90;;;;;;5019850;28;20025;-80
2021/07/09 04:34:52;;;;;;;7.85;4.25;;;13.70;99.90;;;;;;5021087;28;20459;-80
2021/07/09 04:37:18;;;;;;;9.43;3.78;;;13.70;99.90;;;;;;5024936;28;20037;-79
2021/07/09 04:39:44;;;;;;;7.78;2.88;;;13.70;99.90;;;;;;5029568;28;20429;-79
2021/07/09 04:42:11;;;;;;;11.07;3.97;;;13.70;99.90;;;;;;5028658;28;20034;-79
2021/07/09 04:44:37;;;;;;;8.50;3.15;;;13.70;99.90;;;;;;5029352;28;20399;-80
2021/07/09 04:47:03;;;;;;;8.88;3.88;;;13.60;99.90;;;;;;5018530;28;20034;-79
2021/07/09 04:49:29;;;;;;;8.73;3.53;;;13.60;99.90;;;;;;5015551;28;20478;-79
2021/07/09 04:51:55;;;;;;;6.53;4.35;;;13.70;99.90;;;;;;5020930;28;20053;-79
2021/07/09 04:54:20;;;;;;;8.27;4.97;;;13.80;99.90;;;;;;5009988;28;20065;-79
2021/07/09 04:56:47;;;;;;;8.90;3.35;;;13.90;99.90;;;;;;5025011;28;20055;-79
2021/07/09 04:59:12;;;;;;;8.38;2.58;;;14.10;99.90;;;;;;5010199;28;20360;-79
2021/07/09 05:01:38;;;;;;;5.93;2.28;;;14.40;99.90;;;;;;5018644;28;20148;-79
2021/07/09 05:04:05;;;;;;;9.30;1.17;;;14.80;99.90;;;;;;5023356;28;20037;-79
2021/07/09 05:06:31;;;;;;;4.00;0.75;;;15.10;99.90;;;;;;5021932;28;20115;-79
2021/07/09 05:08:57;;;;;;;8.23;0.93;;;15.40;99.90;;;;;;5020293;28;20034;-79
2021/07/09 05:11:23;;;;;;;6.15;2.45;;;15.80;99.90;;;;;;5025219;28;20049;-78
2021/07/09 05:13:48;;;;;;;6.63;2.08;;;16.20;99.90;;;;;;5021273;28;20037;-78
2021/07/09 05:16:14;;;;;;;5.20;1.67;;;16.50;99.90;;;;;;5008302;28;20383;-79
2021/07/09 05:18:40;;;;;;;5.90;2.65;;;16.40;99.90;;;;;;5024691;28;20061;-79
2021/07/09 05:21:05;;;;;;;5.32;1.90;;;16.60;99.90;;;;;;5020353;28;20029;-79
2021/07/09 05:23:31;;;;;;;5.93;2.63;;;16.80;99.90;;;;;;5026901;28;20029;-79
2021/07/09 05:25:57;;;;;;;4.13;1.90;;;16.70;99.90;;;;;;5028993;28;20049;-79
2021/07/09 05:28:22;;;;;;;8.75;1.55;;;16.60;99.90;;;;;;5027804;28;20049;-79
2021/07/09 05:30:48;;;;;;;3.28;1.25;;;16.40;99.90;;;;;;5027307;28;20029;-79
2021/07/09 05:33:17;;;;;;;3.28;0.90;;;16.30;99.90;;;;;;5029196;28;20037;-79
2021/07/09 05:35:44;;;;;;;9.75;1.10;;;15.90;99.90;;;;;;5029133;28;20045;-79
2021/07/09 05:38:10;;;;;;;4.53;1.60;;;16.30;99.90;;;;;;5026262;28;20486;-79
2021/07/09 05:40:36;;;;;;;3.63;1.40;;;16.70;99.90;;;;;;5018852;28;20682;-79
2021/07/09 05:43:02;;;;;;;5.60;1.55;;;16.60;99.90;;;;;;5022490;28;20035;-79
2021/07/09 05:45:29;;;;;;;5.43;1.73;;;16.30;99.90;;;;;;5023268;28;20036;-78
2021/07/09 05:47:55;;;;;;;5.75;1.67;;;16.40;99.90;;;;;;5026271;28;20049;-79
2021/07/09 05:50:21;;;;;;;7.32;2.10;;;16.70;99.90;;;;;;5023862;28;20022;-79
2021/07/09 05:52:48;;;;;;;5.85;1.85;;;17.00;99.90;;;;;;5026182;28;20040;-79
2021/07/09 05:55:14;;;;;;;4.43;2.00;;;17.20;99.90;;;;;;5031221;28;20491;-79
2021/07/09 05:57:40;;;;;;;6.68;1.83;;;17.30;99.90;;;;;;5030399;28;20682;-79
2021/07/09 06:00:07;;;;;;;6.05;2.38;;;17.40;99.90;;;;;;5032435;28;20030;-79
2021/07/09 06:02:32;;;;;;;7.28;2.15;;;17.70;99.90;;;;;;5031643;28;20128;-78
2021/07/09 06:04:58;;;;;;;6.50;1.80;;;17.80;99.90;;;;;;5031896;28;20109;-79
2021/07/09 06:07:24;;;;;;;3.15;1.58;;;18.10;99.90;;;;;;5032175;28;20025;-79
2021/07/09 06:09:49;;;;;;;6.30;2.17;;;18.30;99.90;;;;;;5032424;28;20486;-79
2021/07/09 06:12:15;;;;;;;10.38;2.10;;;18.40;99.90;;;;;;5029369;28;20033;-79
2021/07/09 06:14:41;;;;;;;8.10;1.98;;;18.60;99.90;;;;;;5030711;28;20045;-79
2021/07/09 06:17:06;;;;;;;8.02;2.00;;;18.80;99.90;;;;;;5038978;28;20147;-79
2021/07/09 06:19:32;;;;;;;5.57;2.08;;;19.00;99.90;;;;;;5044691;28;20033;-79
2021/07/09 06:21:58;;;;;;;5.63;1.77;;;19.10;99.90;;;;;;5043492;28;20082;-79
2021/07/09 06:24:24;;;;;;;5.72;2.67;;;19.00;99.90;;;;;;5046963;28;20041;-78
2021/07/09 06:26:49;;;;;;;4.90;2.45;;;19.20;99.90;;;;;;5023569;28;20030;-79
2021/07/09 06:29:15;;;;;;;4.30;1.67;;;19.00;99.90;;;;;;5027302;28;20040;-78
2021/07/09 06:31:41;;;;;;;4.25;1.65;;;19.00;99.90;;;;;;5043430;28;20131;-78
2021/07/09 06:34:06;;;;;;;2.10;1.08;;;19.40;99.90;;;;;;5040323;28;20033;-79
2021/07/09 06:36:32;;;;;;;6.55;1.13;;;19.50;99.90;;;;;;5036549;28;20475;-79
2021/07/09 06:38:58;;;;;;;5.28;1.10;;;19.70;99.90;;;;;;5034442;28;20483;-79
2021/07/09 06:41:23;;;;;;;3.03;1.23;;;19.80;99.90;;;;;;5029543;28;20555;-79
2021/07/09 06:43:49;;;;;;;3.78;0.50;;;19.20;99.90;;;;;;5024834;28;20033;-78
2021/07/09 06:46:15;;;;;;;3.13;0.70;;;18.80;99.90;;;;;;5033603;28;20026;-78
2021/07/09 06:48:41;;;;;;;2.25;0.50;;;18.50;99.90;;;;;;5033308;28;20046;-78
2021/07/09 06:51:07;;;;;;;1.77;0.60;;;18.80;99.90;;;;;;5043710;28;20029;-78
2021/07/09 06:53:33;;;;;;;3.72;0.60;;;18.90;99.90;;;;;;5028738;28;20030;-78
2021/07/09 06:55:59;;;;;;;3.40;0.50;;;19.00;99.90;;;;;;5015667;28;20040;-78
2021/07/09 06:58:24;;;;;;;1.58;0.43;;;19.10;99.90;;;;;;5017153;28;20466;-78
2021/07/09 07:00:50;;;;;;;2.95;0.52;;;19.20;99.90;;;;;;5024932;28;20042;-78
2021/07/09 07:03:16;;;;;;;8.15;0.90;;;19.60;99.90;;;;;;5034732;28;20033;-78
2021/07/09 07:05:41;;;;;;;1.38;0.80;;;19.20;99.90;;;;;;5034301;28;20049;-78
2021/07/09 07:08:18;;;;;;;2.50;1.20;;;19.20;99.90;;;;;;5030855;28;20037;-78
2021/07/09 07:10:44;;;;;;;2.50;0.88;;;19.00;99.90;;;;;;5030696;28;20046;-78
2021/07/09 07:13:10;;;;;;;1.52;0.68;;;19.20;99.90;;;;;;5030700;28;20030;-78
2021/07/09 07:15:37;;;;;;;1.65;0.50;;;19.40;99.90;;;;;;5019182;28;20080;-79
2021/07/09 07:18:08;;;;;;;4.38;0.93;;;19.00;99.90;;;;;;5030754;28;20731;-78
2021/07/09 07:20:39;;;;;;;2.17;0.70;;;18.60;99.90;;;;;;5037029;28;20264;-78
2021/07/09 07:23:05;;;;;;;2.13;0.70;;;18.50;99.90;;;;;;5029298;28;20065;-78
2021/07/09 07:25:31;;;;;;;2.35;0.80;;;18.80;99.90;;;;;;5020843;28;20050;-78
2021/07/09 07:28:01;;;;;;;4.88;0.80;;;18.90;99.90;;;;;;5025142;28;20080;-78
2021/07/09 07:30:27;;;;;;;3.38;1.00;;;19.00;99.90;;;;;;5036551;28;20670;-78
2021/07/09 07:32:54;;;;;;;2.60;0.88;;;19.00;99.90;;;;;;5026143;28;20057;-78
2021/07/09 07:35:20;;;;;;;0.90;0.50;;;19.70;99.90;;;;;;5023090;28;20037;-78
2021/07/09 07:37:46;;;;;;;4.53;0.60;;;19.80;99.90;;;;;;5031240;28;20450;-79
2021/07/09 07:40:12;;;;;;;4.22;0.50;;;20.00;99.90;;;;;;5026416;28;20033;-79
2021/07/09 07:42:37;;;;;;;1.10;0.50;;;20.00;99.90;;;;;;5029015;28;20037;-79
2021/07/09 07:45:04;;;;;;;7.55;0.68;;;20.30;99.90;;;;;;5019956;28;20041;-79
2021/07/09 07:47:30;;;;;;;2.40;0.73;;;;;;;;;;5035646;28;20628;-79
2021/07/09 07:49:56;;;;;;;3.05;0.70;;;19.10;99.90;;;;;;5016158;28;20029;-79
2021/07/09 07:52:22;;;;;;;3.05;0.77;;;18.80;99.90;;;;;;5024567;28;20060;-79
2021/07/09 07:54:48;;;;;;;1.45;0.68;;;19.10;99.90;;;;;;5016915;28;20073;-79
2021/07/09 07:57:13;;;;;;;1.63;0.70;;;19.40;99.90;;;;;;5022393;28;20609;-79
2021/07/09 07:59:41;;;;;;;3.08;0.80;;;19.50;99.90;;;;;;5020136;28;20029;-79
2021/07/09 08:02:08;;;;;;;2.63;0.77;;;19.80;99.90;;;;;;5014985;28;20563;-78
2021/07/09 08:04:34;;;;;;;1.48;0.70;;;20.10;99.90;;;;;;5025972;28;20041;-78
2021/07/09 08:06:59;;;;;;;5.18;1.10;;;20.30;99.90;;;;;;5024978;28;20562;-77
2021/07/09 08:09:25;;;;;;;1.92;0.60;;;20.30;99.90;;;;;;5024294;28;20036;-78
2021/07/09 08:11:52;;;;;;;0.98;0.60;;;20.40;99.90;;;;;;5025205;28;20086;-77
2021/07/09 08:14:18;;;;;;;3.35;0.63;;;20.20;99.90;;;;;;5029392;28;20042;-78
2021/07/09 08:16:44;;;;;;;2.35;0.70;;;20.40;99.90;;;;;;5028945;28;20041;-78
2021/07/09 08:19:10;;;;;;;3.20;0.70;;;20.40;99.90;;;;;;5025858;28;20034;-78
2021/07/09 08:21:35;;;;;;;2.45;0.55;;;20.70;99.90;;;;;;5018674;28;20042;-78
2021/07/09 08:24:01;;;;;;;1.70;0.65;;;21.00;99.90;;;;;;5020241;28;20053;-78
2021/07/09 08:26:27;;;;;;;2.63;0.75;;;21.10;99.90;;;;;;5036055;28;20166;-78
2021/07/09 08:28:52;;;;;;;4.15;0.60;;;20.80;99.90;;;;;;5023857;28;20026;-78
2021/07/09 08:31:18;;;;;;;2.28;0.80;;;20.50;99.90;;;;;;5025501;28;20021;-78
2021/07/09 08:33:44;;;;;;;2.58;0.70;;;20.50;99.90;;;;;;5025220;28;20036;-78
2021/07/09 08:36:09;;;;;;;5.20;0.80;;;21.10;99.90;;;;;;5028486;28;20044;-77
2021/07/09 08:38:35;;;;;;;2.50;0.70;;;21.40;99.90;;;;;;5028995;28;20033;-78
2021/07/09 08:41:01;;;;;;;1.60;0.60;;;21.30;99.90;;;;;;5026158;28;20033;-77
2021/07/09 08:43:26;;;;;;;3.67;0.82;;;21.60;99.90;;;;;;5030328;28;20032;-78
2021/07/09 08:45:52;;;;;;;2.75;0.93;;;21.70;99.90;;;;;;5032915;28;20040;-77
2021/07/09 08:48:21;;;;;;;3.92;0.90;;;22.10;99.90;;;;;;5029964;28;20065;-78
2021/07/09 08:50:46;;;;;;;2.08;0.60;;;21.50;99.90;;;;;;5012581;28;20638;-77
2021/07/09 08:53:12;;;;;;;2.22;0.80;;;21.00;99.90;;;;;;5027345;28;20025;-78
2021/07/09 08:55:38;;;;;;;3.90;0.73;;;21.00;99.90;;;;;;5024171;28;20452;-77
2021/07/09 08:58:05;;;;;;;2.75;0.60;;;20.70;99.90;;;;;;5018218;28;20199;-77
2021/07/09 09:00:34;;;;;;;4.07;0.80;;;21.20;99.90;;;;;;5019906;28;20033;-78
2021/07/09 09:03:09;;;;;;;2.90;0.70;;;20.50;99.90;;;;;;5023620;28;20064;-77
2021/07/09 09:05:35;;;;;;;4.15;1.05;;;20.90;99.90;;;;;;5019663;28;20029;-78
2021/07/09 09:08:02;;;;;;;2.70;0.82;;;21.50;99.90;;;;;;5026702;28;20029;-78
2021/07/09 09:10:37;;;;;;;2.72;0.90;;;21.10;99.90;;;;;;5024082;28;20088;-78
2021/07/09 09:13:05;;;;;;;1.95;0.85;;;21.20;99.90;;;;;;5021542;28;20651;-78
2021/07/09 09:15:31;;;;;;;3.83;0.68;;;21.50;99.90;;;;;;5020040;28;20165;-78
2021/07/09 09:17:56;;;;;;;2.53;0.80;;;21.50;99.90;;;;;;5025529;28;20112;-78
2021/07/09 09:20:22;;;;;;;3.45;0.95;;;22.10;99.90;;;;;;5023045;28;20655;-78
2021/07/09 09:22:48;;;;;;;3.53;0.73;;;22.40;99.90;;;;;;5021659;28;20064;-78
2021/07/09 09:25:14;;;;;;;2.50;0.70;;;22.70;99.90;;;;;;5025352;28;20061;-78
2021/07/09 09:27:40;;;;;;;3.80;0.85;;;22.50;99.90;;;;;;5015048;28;20087;-77
2021/07/09 09:30:11;;;;;;;1.70;0.70;;;21.90;99.90;;;;;;5035832;28;20045;-77
2021/07/09 09:32:50;;;;;;;2.25;0.70;;;22.20;99.90;;;;;;5017341;28;20068;-77
2021/07/09 09:35:27;;;;;;;1.33;0.57;;;22.30;99.90;;;;;;5038047;28;20040;-78
2021/07/09 09:38:07;;;;;;;2.58;0.68;;;22.20;99.90;;;;;;5021447;28;20422;-78
2021/07/09 09:40:34;;;;;;;3.88;0.80;;;22.10;99.90;;;;;;5028158;28;20045;-78
2021/07/09 09:43:07;;;;;;;1.73;0.90;;;22.10;99.90;;;;;;5025382;28;20025;-78
2021/07/09 09:45:34;;;;;;;2.30;0.90;;;22.10;99.90;;;;;;5019939;28;20034;-78
2021/07/09 09:48:14;;;;;;;4.40;1.05;;;21.80;99.90;;;;;;5025129;28;20052;-78
2021/07/09 09:50:52;;;;;;;5.13;1.15;;;21.50;99.90;;;;;;5035434;28;20028;-78
2021/07/09 09:53:32;;;;;;;3.78;0.75;;;21.80;99.90;;;;;;5031025;28;20113;-78
2021/07/09 09:56:07;;;;;;;2.80;0.90;;;22.40;99.90;;;;;;5032321;28;20038;-78
2021/07/09 09:58:34;;;;;;;3.58;0.80;;;22.60;99.90;;;;;;5022778;28;20041;-78
2021/07/09 10:01:00;;;;;;;3.45;0.80;;;22.60;99.90;;;;;;5026729;28;20041;-78
2021/07/09 10:03:25;;;;;;;6.22;0.90;;;22.40;99.90;;;;;;5030197;28;20033;-78
2021/07/09 10:05:52;;;;;;;3.65;0.70;;;22.60;99.90;;;;;;5028409;28;20029;-78
2021/07/09 10:08:20;;;;;;;4.22;0.70;;;22.30;99.90;;;;;;5026023;28;20061;-78
2021/07/09 10:10:46;;;;;;;3.25;0.70;;;22.10;99.90;;;;;;5025140;28;20566;-78
2021/07/09 10:13:14;;;;;;;4.50;0.75;;;22.10;99.90;;;;;;5025240;28;20029;-78
2021/07/09 10:15:41;;;;;;;3.30;0.70;;;22.30;99.90;;;;;;5014342;28;20553;-78
2021/07/09 10:18:12;;;;;;;2.42;0.60;;;22.20;99.90;;;;;;5035646;28;20034;-78
2021/07/09 10:20:39;;;;;;;1.77;0.60;;;22.10;99.90;;;;;;5022197;28;20033;-78
2021/07/09 10:23:06;;;;;;;4.50;0.70;;;21.90;99.90;;;;;;5027031;28;20030;-78
2021/07/09 10:25:32;;;;;;;2.80;0.65;;;22.20;99.90;;;;;;5021258;28;20053;-78
2021/07/09 10:27:57;;;;;;;3.63;0.68;;;22.20;99.90;;;;;;5025651;28;20035;-78
2021/07/09 10:30:35;;;;;;;3.15;0.80;;;22.10;99.90;;;;;;5018188;28;20038;-78
2021/07/09 10:33:00;;;;;;;2.35;0.50;;;22.50;99.90;;;;;;5030691;28;20025;-78
2021/07/09 10:35:33;;;;;;;3.30;0.88;;;22.90;99.90;;;;;;5022079;28;20690;-78
2021/07/09 10:38:08;;;;;;;2.78;0.70;;;22.60;99.90;;;;;;5029294;28;20363;-78
2021/07/09 10:40:34;;;;;;;5.97;0.63;;;22.60;99.90;;;;;;5017797;28;20562;-78
2021/07/09 10:43:00;;;;;;;1.75;0.50;;;22.70;99.90;;;;;;5026626;28;20045;-78
2021/07/09 10:45:28;;;;;;;2.05;0.70;;;22.80;99.90;;;;;;5015489;28;20073;-78
2021/07/09 10:48:03;;;;;;;2.90;0.73;;;22.90;99.90;;;;;;5022569;28;20107;-78
2021/07/09 10:50:36;;;;;;;2.42;0.68;;;23.20;99.90;;;;;;5026219;28;20038;-78
2021/07/09 10:53:03;;;;;;;1.83;0.85;;;22.90;99.90;;;;;;5020537;28;20030;-78
2021/07/09 10:55:29;;;;;;;2.45;0.52;;;22.70;99.90;;;;;;5025817;28;20111;-78
2021/07/09 10:58:07;;;;;;;1.95;0.68;;;22.60;99.90;;;;;;5022254;28;20534;-78
2021/07/09 11:00:47;;;;;;;4.75;0.70;;;22.60;99.90;;;;;;5040747;28;20562;-78
2021/07/09 11:03:25;;;;;;;3.75;0.70;;;22.90;99.90;;;;;;5031157;28;20112;-78
2021/07/09 11:05:50;;;;;;;2.05;0.50;;;22.90;99.90;;;;;;5016208;28;20042;-78
2021/07/09 11:08:31;;;;;;;3.03;0.73;;;23.40;99.90;;;;;;5031044;28;20364;-78
2021/07/09 11:10:58;;;;;;;1.67;0.50;;;23.80;99.90;;;;;;5029878;28;20663;-79
2021/07/09 11:13:42;;;;;;;3.97;0.80;;;23.70;99.90;;;;;;5026481;28;20548;-79
2021/07/09 11:16:27;;;;;;;2.63;0.52;;;24.30;99.90;;;;;;5024592;28;20091;-78
2021/07/09 11:19:00;;;;;;;2.22;0.73;;;24.60;99.90;;;;;;5027228;28;20482;-78
2021/07/09 11:21:32;;;;;;;3.28;0.60;;;24.90;99.90;;;;;;5032633;28;20036;-79
2021/07/09 11:24:08;;;;;;;3.97;0.80;;;25.00;99.90;;;;;;5031547;28;20116;-78
2021/07/09 11:26:35;;;;;;;2.88;0.60;;;25.00;99.90;;;;;;5023309;28;20408;-79
2021/07/09 11:29:17;;;;;;;1.85;0.50;;;24.70;99.90;;;;;;5041885;28;20029;-78
2021/07/09 11:31:42;;;;;;;2.95;0.63;;;23.90;99.90;;;;;;5030274;28;20072;-79
2021/07/09 11:34:14;;;;;;;3.58;0.50;;;24.40;99.90;;;;;;5023493;28;20379;-79
2021/07/09 11:36:41;;;;;;;2.75;0.73;;;24.20;99.90;;;;;;5022880;28;20034;-78
2021/07/09 11:39:13;;;;;;;3.25;1.00;;;23.90;99.90;;;;;;5015276;28;20364;-78
2021/07/09 11:42:09;;;;;;;2.95;0.80;;;23.70;99.90;;;;;;5023567;28;20481;-78
2021/07/09 11:44:48;;;;;;;2.03;0.68;;;23.90;99.90;;;;;;5014589;28;20624;-79
2021/07/09 11:47:15;;;;;;;3.28;0.82;;;23.80;99.90;;;;;;5029087;28;20105;-78
2021/07/09 11:49:46;;;;;;;5.10;0.70;;;24.00;99.90;;;;;;5024800;28;20112;-78
2021/07/09 11:52:14;;;;;;;6.00;0.70;;;23.40;99.90;;;;;;5020570;28;20040;-78
2021/07/09 11:54:45;;;;;;;3.72;0.88;;;23.90;99.90;;;;;;5022345;28;20391;-79
2021/07/09 11:57:13;;;;;;;2.83;0.85;;;24.00;99.90;;;;;;5023660;28;20033;-78
2021/07/09 11:59:42;;;;;;;4.15;0.88;;;24.20;99.90;;;;;;5015524;28;20050;-78
2021/07/09 12:02:13;;;;;;;4.10;0.80;;;24.20;99.90;;;;;;5021144;28;20695;-78
2021/07/09 12:04:46;;;;;;;3.40;0.90;;;24.20;99.90;;;;;;5023872;28;20033;-78
2021/07/09 12:07:24;;;;;;;3.30;0.90;;;24.20;99.90;;;;;;5018356;28;20034;-78
2021/07/09 12:10:12;;;;;;;4.32;1.23;;;24.50;99.90;;;;;;5021819;28;20057;-78
2021/07/09 12:12:52;;;;;;;6.65;1.00;;;24.60;99.90;;;;;;5018250;28;20049;-79
2021/07/09 12:15:25;;;;;;;3.05;0.88;;;24.40;99.90;;;;;;5026943;28;20087;-78
2021/07/09 12:17:58;;;;;;;5.75;1.20;;;24.60;99.90;;;;;;5026071;28;20037;-78
2021/07/09 12:20:31;;;;;;;2.95;0.90;;;24.60;99.90;;;;;;5031785;28;20686;-79
2021/07/09 12:22:58;;;;;;;3.88;1.02;;;24.70;99.90;;;;;;5027592;28;20507;-78
2021/07/09 12:25:25;;;;;;;4.78;0.80;;;24.40;99.90;;;;;;5026194;28;20080;-79
2021/07/09 12:27:53;;;;;;;4.22;0.93;;;24.60;99.90;;;;;;5015941;28;20037;-79
2021/07/09 12:30:22;;;;;;;3.08;0.70;;;24.40;99.90;;;;;;5017190;28;20032;-78
2021/07/09 12:32:59;;;;;;;6.43;0.70;;;24.60;99.90;;;;;;5025458;28;20038;-79
2021/07/09 12:35:26;;;;;;;3.50;0.70;;;24.80;99.90;;;;;;5024870;28;20042;-79
2021/07/09 12:37:57;;;;;;;2.30;0.68;;;24.70;99.90;;;;;;5022890;28;20579;-78
2021/07/09 12:40:31;;;;;;;4.33;0.60;;;24.90;99.90;;;;;;5021257;28;20586;-79
2021/07/09 12:43:16;;;;;;;4.93;0.95;;;25.10;99.90;;;;;;5018244;28;20052;-78
2021/07/09 12:46:00;;;;;;;2.33;0.70;;;25.00;99.90;;;;;;5021155;28;20042;-78
2021/07/09 12:48:46;;;;;;;4.25;0.68;;;24.90;99.90;;;;;;5026017;28;20029;-79
2021/07/09 12:51:32;;;;;;;2.10;0.60;;;25.10;99.90;;;;;;5025496;28;20037;-78